CMA CGM Musca — 2CAC8 — position and weather

sailwx.info

Track history (hours):
 
Tides and Currents Weather Stations Pressure Air Temp Water Temp Dewpoint Dewpoint Depression Visibility Wind Speed Wind Dir Waves Ship Positions

CMA CGM Musca

Last reported at 2015-Feb-27 00:20 UTC. Time now 2015-Mar-02 05:08 UTC.
Position N 31°29' E 032°21'.

Length 347 m; draft 13.7 m.

Type: Ship (hazmat cat A). MMSI: 235070914.

Date/timePositionNaut miles runAvg speedWind from/ knotsBaromVisibWave heightAir tempDewpointWater temp
2015-Feb-27 00:20N 31°29' E 032°21'4 5.6
2015-Feb-26 23:33N 31°33' E 032°22'1615.5
2015-Feb-26 22:33N 31°43' E 032°35'1818.3
2015-Feb-26 21:33N 31°58' E 032°48'3919.3
2015-Feb-26 19:33N 32°26' E 033°19'1919.1
2015-Feb-26 18:33N 32°41' E 033°34'6118.9
2015-Feb-26 15:21N 33°24' E 034°25'  
2015-Feb-22 16:09N 36°22' E 014°26'3518.9
2015-Feb-22 14:17N 36°32' E 013°44'92118.2
2015-Feb-20 11:33N 35°58' W 005°18'18018.0
2015-Feb-20 01:31N 36°30' W 008°58'5116.4
2015-Feb-19 22:24N 37°08' W 009°40'1618.6
2015-Feb-19 21:33N 37°24' W 009°45'1918.7
2015-Feb-19 20:33N 37°42' W 009°51'1918.5
2015-Feb-19 19:33N 38°00' W 009°54'1818.2
2015-Feb-19 18:33N 38°17' W 010°01'2118.5
2015-Feb-19 17:24N 38°39' W 010°05'1718.2
2015-Feb-19 16:27N 38°56' W 010°06'29317.9
2015-Feb-19 00:07N 43°48' W 009°45'51215.6
2015-Feb-17 15:16N 49°43' W 000°47'1420.2
2015-Feb-17 14:33N 49°37' W 000°27'1616.0
2015-Feb-17 13:33N 49°31' W 000°04'9 9.4
2015-Feb-17 12:34N 49°27' E 000°10'0 0.4
2015-Feb-17 11:32N 49°27' E 000°10'0 0.0
2015-Feb-17 10:31N 49°27' E 000°10'0 0.0
2015-Feb-17 09:31N 49°27' E 000°10'0 0.0
2015-Feb-17 08:33N 49°27' E 000°10'0 0.0
2015-Feb-17 07:33N 49°27' E 000°10'0 0.0
2015-Feb-17 06:32N 49°27' E 000°10'0 0.0
2015-Feb-17 05:32N 49°27' E 000°10'0 0.0
2015-Feb-17 04:32N 49°27' E 000°10'0 0.0
2015-Feb-17 03:31N 49°27' E 000°10'0 0.0
2015-Feb-17 02:31N 49°27' E 000°10'0 0.0
2015-Feb-17 01:26N 49°27' E 000°10'0 0.0
2015-Feb-17 00:28N 49°27' E 000°10'  
Track history (hours):
 
Tides and Currents Weather Stations Pressure Air Temp Water Temp Dewpoint Dewpoint Depression Visibility Wind Speed Wind Dir Waves Ship Positions

CMA CGM Musca

Last reported at 2015-Feb-27 00:20 UTC. Time now 2015-Mar-02 05:08 UTC.
Position N 31°29' E 032°21'.

Length 347 m; draft 13.7 m.

Type: Ship (hazmat cat A). MMSI: 235070914.

Date/timePositionNaut miles runAvg speedWind from/ knotsBaromVisibWave heightAir tempDewpointWater temp
2015-Feb-27 00:20N 31°29' E 032°21'4 5.6
2015-Feb-26 23:33N 31°33' E 032°22'1615.5
2015-Feb-26 22:33N 31°43' E 032°35'1818.3
2015-Feb-26 21:33N 31°58' E 032°48'3919.3
2015-Feb-26 19:33N 32°26' E 033°19'1919.1
2015-Feb-26 18:33N 32°41' E 033°34'6118.9
2015-Feb-26 15:21N 33°24' E 034°25'  
2015-Feb-22 16:09N 36°22' E 014°26'3518.9
2015-Feb-22 14:17N 36°32' E 013°44'92118.2
2015-Feb-20 11:33N 35°58' W 005°18'18018.0
2015-Feb-20 01:31N 36°30' W 008°58'5116.4
2015-Feb-19 22:24N 37°08' W 009°40'1618.6
2015-Feb-19 21:33N 37°24' W 009°45'1918.7
2015-Feb-19 20:33N 37°42' W 009°51'1918.5
2015-Feb-19 19:33N 38°00' W 009°54'1818.2
2015-Feb-19 18:33N 38°17' W 010°01'2118.5
2015-Feb-19 17:24N 38°39' W 010°05'1718.2
2015-Feb-19 16:27N 38°56' W 010°06'29317.9
2015-Feb-19 00:07N 43°48' W 009°45'51215.6
2015-Feb-17 15:16N 49°43' W 000°47'1420.2
2015-Feb-17 14:33N 49°37' W 000°27'1616.0
2015-Feb-17 13:33N 49°31' W 000°04'9 9.4
2015-Feb-17 12:34N 49°27' E 000°10'0 0.4
2015-Feb-17 11:32N 49°27' E 000°10'0 0.0
2015-Feb-17 10:31N 49°27' E 000°10'0 0.0
2015-Feb-17 09:31N 49°27' E 000°10'0 0.0
2015-Feb-17 08:33N 49°27' E 000°10'0 0.0
2015-Feb-17 07:33N 49°27' E 000°10'0 0.0
2015-Feb-17 06:32N 49°27' E 000°10'0 0.0
2015-Feb-17 05:32N 49°27' E 000°10'0 0.0
2015-Feb-17 04:32N 49°27' E 000°10'0 0.0
2015-Feb-17 03:31N 49°27' E 000°10'0 0.0
2015-Feb-17 02:31N 49°27' E 000°10'0 0.0
2015-Feb-17 01:26N 49°27' E 000°10'0 0.0
2015-Feb-17 00:28N 49°27' E 000°10'  

Dump ship's entire track history